Terminal Aerodrome Forecast
Issued by NWS

Home | Current Version | Previous Version | Text Only | Print | Product List | Glossary On
Versions: 1 2 3 4 5 6 7 8 9 10 11 12 13 14 15 16 17
000
FTUS41 KGYX 301722
TAFLEB
TAF
KLEB 301722Z 3018/3118 22008KT P6SM BKN250
      TEMPO 3021/3101 5SM SHRA BR BKN025
     FM310600 18002KT 4SM BR SKC
     FM310900 19002KT 1SM BR SCT002
     FM311200 26008KT P6SM SKC=

USA.gov is the U.S. government's official web portal to all federal, state and local government web resources and services.